createdAt,value
2018-05-18T00:01:34.630Z,100770.03
2018-05-18T00:04:02.015Z,100773.45
2018-05-18T00:06:29.407Z,100772.98
2018-05-18T00:08:56.791Z,100766.83
2018-05-18T00:11:24.183Z,100760.49
2018-05-18T00:13:51.579Z,100765.27
2018-05-18T00:16:18.971Z,100758.97
2018-05-18T00:18:46.355Z,100759.58
2018-05-18T00:21:13.750Z,100758.69
2018-05-18T00:23:41.138Z,100756.84
2018-05-18T00:26:08.563Z,100752.97
2018-05-18T00:28:35.925Z,100755.27
2018-05-18T00:31:03.312Z,100755.45
2018-05-18T00:33:30.708Z,100752.81
2018-05-18T00:35:58.103Z,100758.34
2018-05-18T00:38:25.498Z,100757.38
2018-05-18T00:40:52.882Z,100757.30
2018-05-18T00:43:20.275Z,100755.50
2018-05-18T00:45:47.664Z,100759.55
2018-05-18T00:48:15.059Z,100758.04
2018-05-18T00:50:42.439Z,100758.02
2018-05-18T00:53:09.827Z,100755.01
2018-05-18T00:55:41.038Z,100761.63
2018-05-18T00:58:08.471Z,100756.39
2018-05-18T01:00:35.842Z,100757.06
2018-05-18T01:03:03.238Z,100754.99
2018-05-18T01:05:30.646Z,100758.30
2018-05-18T01:07:58.038Z,100749.89
2018-05-18T01:10:25.431Z,100758.81
2018-05-18T01:12:52.823Z,100756.09
2018-05-18T01:15:20.211Z,100757.20
2018-05-18T01:17:47.605Z,100757.38
2018-05-18T01:20:14.994Z,100760.00
2018-05-18T01:22:42.382Z,100758.16
2018-05-18T01:25:09.785Z,100756.17
2018-05-18T01:27:37.176Z,100757.23
2018-05-18T01:30:04.559Z,100755.77
2018-05-18T01:32:31.947Z,100757.91
2018-05-18T01:34:59.339Z,100760.38
2018-05-18T01:37:26.726Z,100759.54
2018-05-18T01:39:54.112Z,100754.32
2018-05-18T01:42:21.495Z,100753.73
2018-05-18T01:44:48.881Z,100756.73
2018-05-18T01:47:16.270Z,100752.60
2018-05-18T01:49:43.747Z,100754.66
2018-05-18T01:52:11.118Z,100752.68
2018-05-18T01:54:38.661Z,100745.50
2018-05-18T01:57:06.043Z,100750.95
2018-05-18T01:59:33.430Z,100752.39
2018-05-18T02:02:00.823Z,100748.09
2018-05-18T02:04:28.203Z,100745.73
2018-05-18T02:06:55.586Z,100741.77
2018-05-18T02:09:22.980Z,100744.17
2018-05-18T02:11:50.367Z,100742.23
2018-05-18T02:14:17.758Z,100753.91
2018-05-18T02:16:45.146Z,100748.09
2018-05-18T02:19:12.543Z,100752.47
2018-05-18T02:21:39.939Z,100756.32
2018-05-18T02:24:07.343Z,100756.03
2018-05-18T02:26:34.731Z,100761.98
2018-05-18T02:29:02.119Z,100758.98
2018-05-18T02:31:29.507Z,100759.41
2018-05-18T02:33:56.903Z,100752.41
2018-05-18T02:36:24.307Z,100753.53
2018-05-18T02:38:51.691Z,100759.89
2018-05-18T02:41:19.091Z,100762.88
2018-05-18T02:43:46.546Z,100759.89
2018-05-18T02:46:13.943Z,100755.78
2018-05-18T02:48:41.334Z,100761.63
2018-05-18T02:51:08.727Z,100766.13
2018-05-18T02:53:36.115Z,100763.55
2018-05-18T02:56:03.507Z,100767.46
2018-05-18T02:58:30.899Z,100764.60
2018-05-18T03:00:58.283Z,100767.47
2018-05-18T03:03:25.725Z,100763.07
2018-05-18T03:05:53.182Z,100762.87
2018-05-18T03:08:20.574Z,100765.36
2018-05-18T03:10:47.973Z,100761.20
2018-05-18T03:13:15.371Z,100759.88
2018-05-18T03:15:42.759Z,100757.90
2018-05-18T03:18:10.155Z,100759.77
2018-05-18T03:20:37.543Z,100758.63
2018-05-18T03:23:04.934Z,100754.39
2018-05-18T03:25:32.331Z,100759.66
2018-05-18T03:27:59.860Z,100759.12
2018-05-18T03:30:27.169Z,100757.48
2018-05-18T03:32:54.554Z,100757.83
2018-05-18T03:35:21.951Z,100755.37
2018-05-18T03:37:49.343Z,100754.23
2018-05-18T03:40:16.739Z,100759.66
2018-05-18T03:42:44.207Z,100760.75
2018-05-18T03:45:11.594Z,100761.27
2018-05-18T03:47:39.000Z,100759.75
2018-05-18T03:50:06.374Z,100765.94
2018-05-18T03:52:33.763Z,100769.77
2018-05-18T03:55:01.155Z,100773.13
2018-05-18T03:57:28.551Z,100765.60
2018-05-18T03:59:55.963Z,100771.69
2018-05-18T04:02:35.110Z,100768.69
2018-05-18T04:05:14.127Z,100767.78
2018-05-18T04:07:53.452Z,100759.27
2018-05-18T04:10:20.811Z,100766.39
2018-05-18T04:12:48.151Z,100773.83
2018-05-18T04:15:15.551Z,100783.09
2018-05-18T04:17:42.939Z,100783.41
2018-05-18T04:20:10.388Z,100780.63
2018-05-18T04:22:37.751Z,100784.12
2018-05-18T04:25:06.245Z,100781.74
2018-05-18T04:27:34.078Z,100786.35
2018-05-18T04:30:01.549Z,100791.12
2018-05-18T04:32:28.858Z,100790.47
2018-05-18T04:34:56.258Z,100792.14
2018-05-18T04:37:23.651Z,100789.03
2018-05-18T04:39:51.037Z,100791.86
2018-05-18T04:42:18.461Z,100795.74
2018-05-18T04:44:45.851Z,100791.15
2018-05-18T04:47:13.246Z,100792.67
2018-05-18T04:49:40.680Z,100796.16
2018-05-18T04:52:08.071Z,100799.93
2018-05-18T04:54:35.586Z,100801.03
2018-05-18T04:57:02.975Z,100803.89
2018-05-18T04:59:30.368Z,100801.66
2018-05-18T05:01:57.759Z,100803.74
2018-05-18T05:04:25.147Z,100803.59
2018-05-18T05:06:52.555Z,100807.12
2018-05-18T05:09:20.127Z,100803.76
2018-05-18T05:11:47.519Z,100806.97
2018-05-18T05:14:15.039Z,100803.95
2018-05-18T05:16:42.421Z,100809.52
2018-05-18T05:19:09.981Z,100815.59
2018-05-18T05:21:37.363Z,100816.83
2018-05-18T05:24:04.751Z,100815.41
2018-05-18T05:26:32.323Z,100812.34
2018-05-18T05:28:59.728Z,100813.56
2018-05-18T05:31:27.107Z,100814.10
2018-05-18T05:33:54.508Z,100813.85
2018-05-18T05:36:21.900Z,100815.79
2018-05-18T05:38:49.298Z,100821.66
2018-05-18T05:41:16.687Z,100827.22
2018-05-18T05:43:44.091Z,100828.39
2018-05-18T05:46:11.479Z,100825.12
2018-05-18T05:48:38.930Z,100826.67
2018-05-18T05:51:06.318Z,100824.30
2018-05-18T05:53:33.842Z,100825.88
2018-05-18T05:56:01.236Z,100826.41
2018-05-18T05:58:28.665Z,100819.96
2018-05-18T06:00:56.028Z,100824.42
2018-05-18T06:03:23.402Z,100831.73
2018-05-18T06:05:50.799Z,100827.41
2018-05-18T06:08:18.186Z,100824.13
2018-05-18T06:10:45.582Z,100826.45
2018-05-18T06:13:12.971Z,100831.25
2018-05-18T06:15:40.376Z,100830.85
2018-05-18T06:18:07.806Z,100833.84
2018-05-18T06:20:35.187Z,100834.52
2018-05-18T06:23:02.582Z,100833.17
2018-05-18T06:25:30.039Z,100837.78
2018-05-18T06:27:57.504Z,100836.27
2018-05-18T06:30:24.891Z,100844.03
2018-05-18T06:32:52.283Z,100840.16
2018-05-18T06:35:19.738Z,100843.46
2018-05-18T06:37:47.071Z,100847.51
2018-05-18T06:40:14.459Z,100846.67
2018-05-18T06:42:41.847Z,100843.09
2018-05-18T06:45:09.234Z,100850.58
2018-05-18T06:47:36.623Z,100852.77
2018-05-18T06:50:04.010Z,100853.80
2018-05-18T06:52:31.492Z,100861.52
2018-05-18T06:54:58.784Z,100859.36
2018-05-18T06:57:26.179Z,100862.99
2018-05-18T06:59:53.563Z,100862.11
2018-05-18T07:02:21.008Z,100861.65
2018-05-18T07:04:48.400Z,100864.20
2018-05-18T07:07:15.786Z,100868.41
2018-05-18T07:09:43.187Z,100872.86
2018-05-18T07:12:10.572Z,100866.84
2018-05-18T07:14:37.967Z,100868.38
2018-05-18T07:17:05.354Z,100871.00
2018-05-18T07:19:32.763Z,100878.64
2018-05-18T07:22:00.172Z,100870.69
2018-05-18T07:24:27.554Z,100877.27
2018-05-18T07:26:54.968Z,100875.73
2018-05-18T07:29:22.364Z,100874.59
2018-05-18T07:31:49.746Z,100877.59
2018-05-18T07:34:17.218Z,100874.73
2018-05-18T07:36:44.604Z,100876.08
2018-05-18T07:39:11.991Z,100879.79
2018-05-18T07:41:39.395Z,100877.83
2018-05-18T07:44:06.779Z,100882.14
2018-05-18T07:46:34.170Z,100885.43
2018-05-18T07:49:01.567Z,100888.81
2018-05-18T07:51:28.965Z,100885.20
2018-05-18T07:53:56.350Z,100881.95
2018-05-18T07:56:23.747Z,100885.13
2018-05-18T07:58:51.131Z,100888.06
2018-05-18T08:01:18.527Z,100882.55
2018-05-18T08:03:45.910Z,100879.16
2018-05-18T08:06:13.299Z,100885.66
2018-05-18T08:08:40.686Z,100887.07
2018-05-18T08:11:08.086Z,100883.38
2018-05-18T08:13:35.474Z,100883.95
2018-05-18T08:16:02.927Z,100884.36
2018-05-18T08:18:30.259Z,100885.91
2018-05-18T08:20:57.638Z,100883.05
2018-05-18T08:23:36.810Z,100878.80
2018-05-18T08:26:04.201Z,100880.07
2018-05-18T08:28:43.384Z,100876.02
2018-05-18T08:31:10.766Z,100881.27
2018-05-18T08:33:38.158Z,100881.53
2018-05-18T08:36:05.547Z,100881.75
2018-05-18T08:38:32.938Z,100880.44
2018-05-18T08:41:00.341Z,100882.48
2018-05-18T08:43:27.792Z,100881.08
2018-05-18T08:45:55.190Z,100878.65
2018-05-18T08:48:22.599Z,100883.12
2018-05-18T08:50:49.995Z,100888.67
2018-05-18T08:53:17.382Z,100890.83
2018-05-18T08:55:44.783Z,100879.65
2018-05-18T08:58:12.211Z,100882.14
2018-05-18T09:00:39.623Z,100882.24
2018-05-18T09:03:06.994Z,100881.59
2018-05-18T09:05:34.383Z,100877.00
2018-05-18T09:08:01.768Z,100877.87
2018-05-18T09:10:29.163Z,100875.81
2018-05-18T09:12:56.635Z,100879.89
2018-05-18T09:15:24.024Z,100881.67
2018-05-18T09:17:51.414Z,100871.47
2018-05-18T09:20:18.803Z,100873.99
2018-05-18T09:22:46.190Z,100874.67
2018-05-18T09:25:13.583Z,100878.72
2018-05-18T09:27:40.971Z,100874.31
2018-05-18T09:30:08.362Z,100876.38
2018-05-18T09:32:35.751Z,100868.47
2018-05-18T09:35:03.139Z,100874.34
2018-05-18T09:37:30.531Z,100871.42
2018-05-18T09:39:57.910Z,100870.17
2018-05-18T09:42:25.302Z,100870.51
2018-05-18T09:44:52.686Z,100866.19
2018-05-18T09:47:20.075Z,100864.90
2018-05-18T09:49:47.463Z,100866.08
2018-05-18T09:52:14.958Z,100873.66
2018-05-18T09:54:42.406Z,100878.05
2018-05-18T09:57:09.730Z,100873.89
2018-05-18T09:59:37.125Z,100880.87
2018-05-18T10:02:04.535Z,100877.06
2018-05-18T10:04:31.945Z,100880.80
2018-05-18T10:06:59.330Z,100879.09
2018-05-18T10:09:26.723Z,100878.34
2018-05-18T10:11:54.099Z,100881.64
2018-05-18T10:14:21.491Z,100880.08
2018-05-18T10:16:48.916Z,100876.78
2018-05-18T10:19:16.295Z,100875.03
2018-05-18T10:21:43.686Z,100878.08
2018-05-18T10:24:11.078Z,100875.80
2018-05-18T10:26:38.499Z,100877.84
2018-05-18T10:29:05.903Z,100883.48
2018-05-18T10:31:33.286Z,100881.63
2018-05-18T10:34:00.680Z,100879.77
2018-05-18T10:36:28.071Z,100872.94
2018-05-18T10:38:55.507Z,100869.20
2018-05-18T10:41:22.895Z,100866.27
2018-05-18T10:43:50.298Z,100863.94
2018-05-18T10:46:17.675Z,100862.74
2018-05-18T10:48:45.058Z,100868.41
2018-05-18T10:51:12.463Z,100863.38
2018-05-18T10:53:39.847Z,100865.40
2018-05-18T10:56:07.235Z,100861.27
2018-05-18T10:58:34.624Z,100854.97
2018-05-18T11:01:02.015Z,100856.92
2018-05-18T11:03:29.399Z,100850.86
2018-05-18T11:05:56.791Z,100854.59
2018-05-18T11:08:24.176Z,100853.29
2018-05-18T11:10:51.570Z,100849.45
2018-05-18T11:13:19.778Z,100849.59
2018-05-18T11:15:47.178Z,100842.33
2018-05-18T11:18:14.571Z,100837.86
2018-05-18T11:20:41.966Z,100834.86
2018-05-18T11:23:09.419Z,100831.89
2018-05-18T11:25:36.847Z,100843.33
2018-05-18T11:28:04.244Z,100837.82
2018-05-18T11:30:31.627Z,100839.48
2018-05-18T11:32:59.019Z,100832.44
2018-05-18T11:35:26.403Z,100822.91
2018-05-18T11:37:53.887Z,100831.95
2018-05-18T11:40:21.279Z,100824.98
2018-05-18T11:42:48.666Z,100826.58
2018-05-18T11:45:16.067Z,100815.30
2018-05-18T11:47:43.467Z,100827.34
2018-05-18T11:50:10.885Z,100825.36
2018-05-18T11:52:38.262Z,100819.45
2018-05-18T11:55:05.739Z,100813.79
2018-05-18T11:57:33.131Z,100808.08
2018-05-18T12:00:00.519Z,100803.55
2018-05-18T12:02:27.975Z,100797.06
2018-05-18T12:04:55.379Z,100801.22
2018-05-18T12:07:22.758Z,100801.00
2018-05-18T12:09:50.154Z,100796.27
2018-05-18T12:12:17.638Z,100798.28
2018-05-18T12:14:45.067Z,100789.42
2018-05-18T12:17:12.462Z,100799.87
2018-05-18T12:19:39.915Z,100791.56
2018-05-18T12:22:07.294Z,100781.47
2018-05-18T12:24:34.698Z,100782.22
2018-05-18T12:27:02.120Z,100790.48
2018-05-18T12:29:29.503Z,100783.47
2018-05-18T12:31:56.899Z,100784.52
2018-05-18T12:34:24.286Z,100783.02
2018-05-18T12:36:51.695Z,100781.40
2018-05-18T12:39:19.083Z,100777.51
2018-05-18T12:41:46.474Z,100770.34
2018-05-18T12:44:13.867Z,100765.59
2018-05-18T12:46:41.260Z,100761.77
2018-05-18T12:49:08.638Z,100761.71
2018-05-18T12:51:36.035Z,100761.12
2018-05-18T12:54:03.478Z,100766.77
2018-05-18T12:56:30.819Z,100759.55
2018-05-18T12:58:58.211Z,100757.97
2018-05-18T13:01:25.616Z,100753.69
2018-05-18T13:03:53.006Z,100748.00
2018-05-18T13:06:20.402Z,100757.55
2018-05-18T13:08:47.786Z,100747.80
2018-05-18T13:11:15.197Z,100754.98
2018-05-18T13:13:42.567Z,100745.45
2018-05-18T13:16:09.955Z,100751.22
2018-05-18T13:18:37.359Z,100749.98
2018-05-18T13:21:04.742Z,100749.45
2018-05-18T13:23:32.140Z,100751.46
2018-05-18T13:25:59.527Z,100748.58
2018-05-18T13:28:27.075Z,100742.78
2018-05-18T13:30:54.458Z,100741.47
2018-05-18T13:33:21.855Z,100745.05
2018-05-18T13:35:49.231Z,100747.27
2018-05-18T13:38:16.627Z,100746.91
2018-05-18T13:40:44.020Z,100745.41
2018-05-18T13:43:11.414Z,100745.03
2018-05-18T13:45:38.866Z,100743.55
2018-05-18T13:48:06.248Z,100735.05
2018-05-18T13:50:33.670Z,100738.16
2018-05-18T13:53:01.055Z,100738.80
2018-05-18T13:55:28.458Z,100724.63
2018-05-18T13:57:55.843Z,100732.78
2018-05-18T14:00:23.283Z,100739.95
2018-05-18T14:02:50.674Z,100738.95
2018-05-18T14:05:18.079Z,100738.49
2018-05-18T14:07:45.459Z,100741.23
2018-05-18T14:10:12.852Z,100735.27
2018-05-18T14:12:40.235Z,100733.39
2018-05-18T14:15:07.627Z,100730.25
2018-05-18T14:17:35.013Z,100730.98
2018-05-18T14:20:02.450Z,100728.28
2018-05-18T14:22:29.832Z,100730.03
2018-05-18T14:24:57.223Z,100726.47
2018-05-18T14:27:24.611Z,100725.09
2018-05-18T14:29:52.011Z,100721.52
2018-05-18T14:32:19.392Z,100726.98
2018-05-18T14:34:46.855Z,100733.22
2018-05-18T14:37:14.246Z,100730.13
2018-05-18T14:39:41.630Z,100729.36
2018-05-18T14:42:09.029Z,100726.89
2018-05-18T14:44:36.419Z,100717.06
2018-05-18T14:47:03.806Z,100719.92
2018-05-18T14:49:31.200Z,100718.11
2018-05-18T14:51:58.587Z,100720.56
2018-05-18T14:54:25.971Z,100712.89
2018-05-18T14:56:53.371Z,100716.37
2018-05-18T14:59:20.759Z,100714.13
2018-05-18T15:01:48.152Z,100705.97
2018-05-18T15:04:15.668Z,100712.60
2018-05-18T15:06:43.067Z,100709.42
2018-05-18T15:09:10.454Z,100710.58
2018-05-18T15:11:37.838Z,100713.30
2018-05-18T15:14:05.230Z,100703.69
2018-05-18T15:16:32.627Z,100699.84
2018-05-18T15:19:00.027Z,100701.11
2018-05-18T15:21:27.514Z,100696.61
2018-05-18T15:23:54.912Z,100693.83
2018-05-18T15:26:22.299Z,100701.71
2018-05-18T15:28:49.754Z,100705.42
2018-05-18T15:31:17.070Z,100702.38
2018-05-18T15:33:44.467Z,100703.90
2018-05-18T15:36:11.855Z,100695.06
2018-05-18T15:38:39.247Z,100700.91
2018-05-18T15:41:06.656Z,100703.28
2018-05-18T15:43:34.094Z,100701.53
2018-05-18T15:46:01.490Z,100689.57
2018-05-18T15:48:28.876Z,100688.11
2018-05-18T15:50:56.263Z,100692.30
2018-05-18T15:53:23.668Z,100697.39
2018-05-18T15:55:51.060Z,100697.22
2018-05-18T15:58:19.494Z,100703.08
2018-05-18T16:00:46.930Z,100699.79
2018-05-18T16:03:14.606Z,100698.67
2018-05-18T16:05:42.028Z,100700.59
2018-05-18T16:08:09.442Z,100698.13
2018-05-18T16:10:36.915Z,100697.84
2018-05-18T16:13:04.350Z,100699.52
2018-05-18T16:15:31.843Z,100693.58
2018-05-18T16:17:59.294Z,100692.73
2018-05-18T16:20:26.726Z,100688.72
2018-05-18T16:22:54.166Z,100692.39
2018-05-18T16:25:21.563Z,100690.50
2018-05-18T16:27:49.119Z,100688.06
2018-05-18T16:30:16.566Z,100690.83
2018-05-18T16:32:44.031Z,100687.56
2018-05-18T16:35:11.438Z,100691.29
2018-05-18T16:37:38.818Z,100684.73
2018-05-18T16:40:06.289Z,100689.39
2018-05-18T16:42:33.999Z,100689.79
2018-05-18T16:45:01.474Z,100688.49
2018-05-18T16:47:29.037Z,100685.83
2018-05-18T16:49:56.494Z,100688.56
2018-05-18T16:52:23.943Z,100690.86
2018-05-18T16:54:51.383Z,100692.43
2018-05-18T16:57:18.774Z,100688.81
2018-05-18T16:59:46.222Z,100687.82
2018-05-18T17:02:13.690Z,100693.22
2018-05-18T17:04:41.142Z,100694.66
2018-05-18T17:07:08.567Z,100689.96
2018-05-18T17:09:35.954Z,100690.74
2018-05-18T17:12:03.363Z,100687.95
2018-05-18T17:14:30.812Z,100693.16
2018-05-18T17:16:58.286Z,100693.98
2018-05-18T17:19:25.731Z,100692.16
2018-05-18T17:21:53.177Z,100692.01
2018-05-18T17:24:20.578Z,100695.72
2018-05-18T17:26:48.044Z,100692.47
2018-05-18T17:29:15.454Z,100689.70
2018-05-18T17:31:42.890Z,100687.86
2018-05-18T17:34:11.337Z,100688.04
2018-05-18T17:36:38.926Z,100683.17
2018-05-18T17:39:06.349Z,100687.31
2018-05-18T17:41:33.726Z,100684.17
2018-05-18T17:44:01.120Z,100689.47
2018-05-18T17:46:28.526Z,100686.71
2018-05-18T17:48:56.029Z,100683.38
2018-05-18T17:51:23.338Z,100681.44
2018-05-18T17:53:50.739Z,100681.94
2018-05-18T17:56:18.119Z,100686.09
2018-05-18T17:58:45.506Z,100686.84
2018-05-18T18:01:12.891Z,100682.38
2018-05-18T18:03:40.282Z,100680.22
2018-05-18T18:06:07.683Z,100679.77
2018-05-18T18:08:35.071Z,100675.62
2018-05-18T18:11:02.466Z,100674.63
2018-05-18T18:13:29.965Z,100674.27
2018-05-18T18:15:57.346Z,100678.09
2018-05-18T18:18:24.752Z,100677.67
2018-05-18T18:20:52.146Z,100678.61
2018-05-18T18:23:19.537Z,100677.64
2018-05-18T18:25:46.926Z,100676.33
2018-05-18T18:28:14.339Z,100677.99
2018-05-18T18:30:41.730Z,100674.47
2018-05-18T18:33:09.118Z,100674.45
2018-05-18T18:35:36.511Z,100677.55
2018-05-18T18:38:03.902Z,100678.20
2018-05-18T18:40:31.306Z,100683.33
2018-05-18T18:42:58.700Z,100689.55
2018-05-18T18:45:26.092Z,100686.50
2018-05-18T18:47:53.488Z,100684.25
2018-05-18T18:50:20.867Z,100685.59
2018-05-18T18:52:48.271Z,100686.02
2018-05-18T18:55:15.647Z,100684.82
2018-05-18T18:57:43.042Z,100692.64
2018-05-18T19:00:10.426Z,100689.38
2018-05-18T19:02:37.819Z,100695.09
2018-05-18T19:05:05.210Z,100693.15
2018-05-18T19:07:32.619Z,100699.81
2018-05-18T19:10:00.003Z,100698.25
2018-05-18T19:12:27.403Z,100698.47
2018-05-18T19:14:54.874Z,100700.02
2018-05-18T19:17:22.263Z,100705.23
2018-05-18T19:19:49.663Z,100701.39
2018-05-18T19:22:17.050Z,100703.55
2018-05-18T19:24:44.443Z,100704.35
2018-05-18T19:27:11.895Z,100707.08
2018-05-18T19:29:39.304Z,100707.55
2018-05-18T19:32:06.679Z,100705.08
2018-05-18T19:34:34.071Z,100702.73
2018-05-18T19:37:01.462Z,100708.98
2018-05-18T19:39:28.869Z,100711.51
2018-05-18T19:41:56.243Z,100712.69
2018-05-18T19:44:23.634Z,100712.81
2018-05-18T19:46:51.027Z,100716.29
2018-05-18T19:49:18.477Z,100711.81
2018-05-18T19:51:45.871Z,100717.86
2018-05-18T19:54:13.285Z,100716.72
2018-05-18T19:56:40.675Z,100711.98
2018-05-18T19:59:08.067Z,100712.48
2018-05-18T20:01:35.458Z,100717.67
2018-05-18T20:04:02.842Z,100717.72
2018-05-18T20:06:30.237Z,100718.59
2018-05-18T20:08:57.631Z,100713.47
2018-05-18T20:11:25.018Z,100713.42
2018-05-18T20:13:52.403Z,100715.84
2018-05-18T20:16:19.795Z,100711.94
2018-05-18T20:18:47.179Z,100715.70
2018-05-18T20:21:14.618Z,100711.91
2018-05-18T20:23:41.982Z,100710.73
2018-05-18T20:26:09.374Z,100720.02
2018-05-18T20:28:36.768Z,100716.55
2018-05-18T20:31:04.167Z,100720.16
2018-05-18T20:33:31.555Z,100725.76
2018-05-18T20:35:58.971Z,100721.20
2018-05-18T20:38:26.355Z,100720.97
2018-05-18T20:40:53.763Z,100720.19
2018-05-18T20:43:21.146Z,100719.63
2018-05-18T20:45:48.535Z,100726.59
2018-05-18T20:48:16.022Z,100729.53
2018-05-18T20:50:43.414Z,100728.43
2018-05-18T20:53:10.807Z,100736.79
2018-05-18T20:55:38.200Z,100733.45
2018-05-18T20:58:05.736Z,100733.20
2018-05-18T21:00:33.127Z,100730.09
2018-05-18T21:03:00.523Z,100737.11
2018-05-18T21:05:27.906Z,100736.23
2018-05-18T21:07:55.302Z,100737.45
2018-05-18T21:10:22.685Z,100730.16
2018-05-18T21:12:50.077Z,100734.14
2018-05-18T21:15:17.463Z,100735.72
2018-05-18T21:17:44.907Z,100740.33
2018-05-18T21:20:12.271Z,100741.39
2018-05-18T21:22:39.669Z,100747.02
2018-05-18T21:25:07.052Z,100737.08
2018-05-18T21:27:34.450Z,100739.73
2018-05-18T21:30:01.843Z,100733.78
2018-05-18T21:32:29.231Z,100741.09
2018-05-18T21:34:56.620Z,100740.19
2018-05-18T21:37:24.038Z,100739.39
2018-05-18T21:39:52.081Z,100738.46
2018-05-18T21:42:20.134Z,100737.36
2018-05-18T21:44:47.506Z,100736.27
2018-05-18T21:47:14.895Z,100741.73
2018-05-18T21:49:42.291Z,100741.11
2018-05-18T21:52:09.670Z,100746.29
2018-05-18T21:54:37.064Z,100744.12
2018-05-18T21:57:04.461Z,100746.13
2018-05-18T21:59:31.851Z,100750.95
2018-05-18T22:01:59.239Z,100745.50
2018-05-18T22:04:26.636Z,100749.75
2018-05-18T22:06:54.022Z,100755.94
2018-05-18T22:09:21.409Z,100757.32
2018-05-18T22:11:48.799Z,100761.64
2018-05-18T22:14:16.243Z,100760.61
2018-05-18T22:16:43.579Z,100760.06
2018-05-18T22:19:10.966Z,100749.28
2018-05-18T22:21:38.358Z,100755.25
2018-05-18T22:24:05.740Z,100759.16
2018-05-18T22:26:33.130Z,100757.20
2018-05-18T22:29:00.515Z,100756.30
2018-05-18T22:31:27.907Z,100757.71
2018-05-18T22:33:55.290Z,100760.81
2018-05-18T22:36:22.683Z,100760.82
2018-05-18T22:38:50.071Z,100756.31
2018-05-18T22:41:17.466Z,100757.65
2018-05-18T22:43:44.854Z,100759.60
2018-05-18T22:46:12.243Z,100758.16
2018-05-18T22:48:39.635Z,100764.53
2018-05-18T22:51:07.023Z,100760.75
2018-05-18T22:53:34.411Z,100766.29
2018-05-18T22:56:02.534Z,100761.56
2018-05-18T22:58:29.932Z,100756.45
2018-05-18T23:00:57.332Z,100758.63
2018-05-18T23:03:24.828Z,100760.77
2018-05-18T23:05:52.214Z,100761.80
2018-05-18T23:08:19.607Z,100762.30
2018-05-18T23:10:47.000Z,100761.07
2018-05-18T23:13:14.394Z,100763.97
2018-05-18T23:15:41.779Z,100764.88
2018-05-18T23:18:09.174Z,100774.34
2018-05-18T23:20:36.570Z,100771.87
2018-05-18T23:23:03.963Z,100770.95
2018-05-18T23:25:31.358Z,100771.95
2018-05-18T23:27:58.750Z,100771.88
2018-05-18T23:30:26.142Z,100766.72
2018-05-18T23:32:53.539Z,100766.52
2018-05-18T23:35:20.927Z,100765.48
2018-05-18T23:37:48.314Z,100765.47
2018-05-18T23:40:15.706Z,100763.73
2018-05-18T23:42:43.098Z,100768.03
2018-05-18T23:45:11.410Z,100766.59
2018-05-18T23:47:38.796Z,100768.03
2018-05-18T23:50:06.238Z,100761.02
2018-05-18T23:52:33.623Z,100765.76
2018-05-18T23:55:01.022Z,100760.50
2018-05-18T23:57:28.403Z,100766.14
2018-05-18T23:59:56.019Z,100758.84
